KSLH

Cheboygan County Airport

Cheboygan, Michigan, USA
METAR KSLH 160055Z AUTO 00000KT 10SM CLR M03/M03 A3021 RMK AO2 T10301035
Observed Flight Rules
Dec-16 @ 00:55 UTC (21 minutes ago) Visual Flight Rules
Visibility Clouds
10 miles
  • Clear skies
Temperatures Readings
Current -3°C / 27°F
Dewpoint -4°C / 25°F
Humidity 93%
Altimeter 30.21" Hg
Pressure 1023 hPa
Elevation 195
METAR KSLH 160055Z AUTO 00000KT 10SM CLR M03/M03 A3021 RMK AO2 T10301035
Observed Flight Rules
Dec-16 @ 00:55 UTC
(21 minutes ago)
VFR
Clouds
  • Clear skies
Temperature Dewpoint
-3°C / 27°F -4°C / 25°F
Humidity Altimeter Pressure
93% 30.21" Hg 1023 hPa